Portada
METAR-TAF:

METAR-TAF

Aeropuertos :

Sevilla, España

Aeropuerto de Sevilla

latitud: 37-25N, longitud: 005-54W, altitud: 34 m

Observación

El informe se hizo hace 24 minutos, a las 08:00 UTC
Viento 6 kt del sur-sureste, variando entre sureste y oeste
Temperatura 20°C
Humedad 83%
Presión 1017 hPa
Visibilidad 10 km o más
Nubes dispersas a una altura de 1700 ft

METAR: LEZL 280800Z 16006KT 140V260 9999 SCT017 20/17 Q1017 NOSIG

Hora: 10:24 (08:24 UTC)

Pronóstico

El informe se hizo hace 6 horas y 24 minutos, a las 02:00 UTC
Pronóstico válido del 28 a las 03 UTC al 29 a las 03 UTC
Viento 9 kt del suroeste
Visibilidad 10 km o más
sin nubes por debajo de 1500 m y sin presencia de cumulonimbus.
Probabilidad 40% :
Temporalmente
del 28 a las 03 UTC al 28 a las 09 UTC
Visibilidad: 3000 m
Cielo nuboso a una altura de 800 ft
neblina

TAF: LEZL 280200Z 2803/2903 23009KT CAVOK TX25/2815Z TN16/2902Z PROB40 TEMPO 2803/2809 3000 BR BKN008

Observaciones y pronósticos meteorológicos de más de 4000 aeropuertos (mensajes METAR y TAF).

Los puntos amarillos y rojos representan las estaciones disponibles.

Ponga el ratón en el punto deseado para ver el nombre de la estación.

Haga clic para ver las observaciones y los pronósticos meteorológicos.

Para cambiar el mapa : haga clic en los botones verdes con una cruz de color negro para hacer un zoom, en el botón verde con un guión para alejar o en las flechas verdes para mapas adyacentes.


METAR-TAF: